sensor_id;sensor_type;location;lat;lon;timestamp;pressure;altitude;pressure_sealevel;temperature;humidity
48216;BME280;34005;48.844;10.098;2023-04-30T00:00:29;96962.94;;;12.51;75.25
48216;BME280;34005;48.844;10.098;2023-04-30T00:02:57;96964.47;;;12.45;72.61
48216;BME280;34005;48.844;10.098;2023-04-30T00:05:25;96963.22;;;12.41;75.39
48216;BME280;34005;48.844;10.098;2023-04-30T00:07:52;96961.06;;;12.45;77.40
48216;BME280;34005;48.844;10.098;2023-04-30T00:10:20;96972.97;;;12.47;77.66
48216;BME280;34005;48.844;10.098;2023-04-30T00:12:47;96976.31;;;12.41;72.83
48216;BME280;34005;48.844;10.098;2023-04-30T00:15:16;96978.13;;;12.41;76.37
48216;BME280;34005;48.844;10.098;2023-04-30T00:17:44;96987.22;;;12.45;77.60
48216;BME280;34005;48.844;10.098;2023-04-30T00:20:12;96971.69;;;12.43;74.79
48216;BME280;34005;48.844;10.098;2023-04-30T00:25:15;96975.59;;;12.32;72.09
48216;BME280;34005;48.844;10.098;2023-04-30T00:30:20;96978.94;;;12.26;72.21
48216;BME280;34005;48.844;10.098;2023-04-30T00:32:49;96972.72;;;12.27;72.95
48216;BME280;34005;48.844;10.098;2023-04-30T00:37:58;96973.72;;;12.26;72.55
48216;BME280;34005;48.844;10.098;2023-04-30T00:45:53;96983.19;;;12.27;75.95
48216;BME280;34005;48.844;10.098;2023-04-30T00:48:22;96984.81;;;12.28;77.49
48216;BME280;34005;48.844;10.098;2023-04-30T00:50:51;96989.69;;;12.31;77.83
48216;BME280;34005;48.844;10.098;2023-04-30T00:53:20;96983.19;;;12.27;76.42
48216;BME280;34005;48.844;10.098;2023-04-30T00:55:49;96994.63;;;12.26;77.78
48216;BME280;34005;48.844;10.098;2023-04-30T01:03:43;96981.69;;;12.18;72.30
48216;BME280;34005;48.844;10.098;2023-04-30T01:08:50;96979.06;;;12.18;76.94
48216;BME280;34005;48.844;10.098;2023-04-30T01:16:42;96984.13;;;12.05;70.22
48216;BME280;34005;48.844;10.098;2023-04-30T01:21:58;96988.00;;;11.94;70.00
48216;BME280;34005;48.844;10.098;2023-04-30T01:24:48;96987.53;;;11.90;72.25
48216;BME280;34005;48.844;10.098;2023-04-30T01:29:55;96980.38;;;11.84;70.13
48216;BME280;34005;48.844;10.098;2023-04-30T01:32:24;96974.19;;;11.85;71.72
48216;BME280;34005;48.844;10.098;2023-04-30T01:40:22;96988.41;;;11.83;71.36
48216;BME280;34005;48.844;10.098;2023-04-30T01:43:03;96991.47;;;11.86;72.01
48216;BME280;34005;48.844;10.098;2023-04-30T01:45:47;96988.22;;;11.84;70.58
48216;BME280;34005;48.844;10.098;2023-04-30T01:48:42;96989.88;;;11.85;71.76
48216;BME280;34005;48.844;10.098;2023-04-30T01:53:46;96987.38;;;11.92;75.54
48216;BME280;34005;48.844;10.098;2023-04-30T01:56:20;96983.94;;;11.91;74.17
48216;BME280;34005;48.844;10.098;2023-04-30T01:59:01;96985.44;;;11.86;72.02
48216;BME280;34005;48.844;10.098;2023-04-30T02:01:33;96989.56;;;11.80;73.04
48216;BME280;34005;48.844;10.098;2023-04-30T02:04:01;96981.31;;;11.77;71.54
48216;BME280;34005;48.844;10.098;2023-04-30T02:09:06;96979.50;;;11.77;72.93
48216;BME280;34005;48.844;10.098;2023-04-30T02:16:55;96970.84;;;11.62;71.57
48216;BME280;34005;48.844;10.098;2023-04-30T02:27:31;96970.75;;;11.85;77.19
48216;BME280;34005;48.844;10.098;2023-04-30T02:32:43;96980.34;;;11.92;77.98
48216;BME280;34005;48.844;10.098;2023-04-30T02:43:17;96972.28;;;11.79;75.58
48216;BME280;34005;48.844;10.098;2023-04-30T02:51:04;96980.91;;;11.65;70.22
48216;BME280;34005;48.844;10.098;2023-04-30T02:53:33;96980.66;;;11.60;69.69
48216;BME280;34005;48.844;10.098;2023-04-30T02:56:02;96980.56;;;11.53;69.20
48216;BME280;34005;48.844;10.098;2023-04-30T03:03:54;96974.16;;;11.55;73.51
48216;BME280;34005;48.844;10.098;2023-04-30T03:06:25;96964.97;;;11.60;74.16
48216;BME280;34005;48.844;10.098;2023-04-30T03:08:54;96969.50;;;11.66;76.07
48216;BME280;34005;48.844;10.098;2023-04-30T03:11:22;96972.75;;;11.68;72.89
48216;BME280;34005;48.844;10.098;2023-04-30T03:13:51;96970.28;;;11.66;73.01
48216;BME280;34005;48.844;10.098;2023-04-30T03:16:21;96974.97;;;11.71;75.44
48216;BME280;34005;48.844;10.098;2023-04-30T03:18:57;96967.50;;;11.68;71.48
48216;BME280;34005;48.844;10.098;2023-04-30T03:21:27;96971.81;;;11.61;71.32
48216;BME280;34005;48.844;10.098;2023-04-30T03:23:56;96974.53;;;11.52;71.91
48216;BME280;34005;48.844;10.098;2023-04-30T03:28:59;96967.03;;;11.49;71.15
48216;BME280;34005;48.844;10.098;2023-04-30T03:31:28;96967.22;;;11.48;71.93
48216;BME280;34005;48.844;10.098;2023-04-30T03:33:57;96970.28;;;11.51;75.15
48216;BME280;34005;48.844;10.098;2023-04-30T03:38:57;96973.78;;;11.59;72.80
48216;BME280;34005;48.844;10.098;2023-04-30T03:41:26;96964.50;;;11.56;74.58
48216;BME280;34005;48.844;10.098;2023-04-30T03:43:54;96965.22;;;11.50;71.52
48216;BME280;34005;48.844;10.098;2023-04-30T03:46:23;96964.16;;;11.44;70.71
48216;BME280;34005;48.844;10.098;2023-04-30T03:48:51;96959.91;;;11.43;71.73
48216;BME280;34005;48.844;10.098;2023-04-30T03:54:05;96955.41;;;11.37;69.85
48216;BME280;34005;48.844;10.098;2023-04-30T03:56:35;96955.09;;;11.32;69.57
48216;BME280;34005;48.844;10.098;2023-04-30T03:59:04;96962.84;;;11.25;69.28
48216;BME280;34005;48.844;10.098;2023-04-30T04:04:08;96956.53;;;11.20;69.99
48216;BME280;34005;48.844;10.098;2023-04-30T04:06:36;96948.25;;;11.16;69.09
48216;BME280;34005;48.844;10.098;2023-04-30T04:09:07;96952.56;;;11.09;69.04
48216;BME280;34005;48.844;10.098;2023-04-30T04:14:10;96958.09;;;11.06;69.75
48216;BME280;34005;48.844;10.098;2023-04-30T04:16:39;96962.53;;;11.05;69.38
48216;BME280;34005;48.844;10.098;2023-04-30T04:19:08;96963.53;;;11.04;68.97
48216;BME280;34005;48.844;10.098;2023-04-30T04:21:36;96960.44;;;11.01;68.91
48216;BME280;34005;48.844;10.098;2023-04-30T04:24:07;96959.97;;;10.97;69.14
48216;BME280;34005;48.844;10.098;2023-04-30T04:26:36;96970.78;;;10.94;68.91
48216;BME280;34005;48.844;10.098;2023-04-30T04:29:04;96967.69;;;10.90;68.80
48216;BME280;34005;48.844;10.098;2023-04-30T04:31:34;96970.66;;;10.87;68.75
48216;BME280;34005;48.844;10.098;2023-04-30T04:36:39;96976.72;;;10.80;68.74
48216;BME280;34005;48.844;10.098;2023-04-30T04:39:08;96975.13;;;10.79;68.78
48216;BME280;34005;48.844;10.098;2023-04-30T04:41:37;96974.47;;;10.77;68.82
48216;BME280;34005;48.844;10.098;2023-04-30T04:44:05;96980.66;;;10.76;68.84
48216;BME280;34005;48.844;10.098;2023-04-30T04:46:34;96978.25;;;10.74;68.75
48216;BME280;34005;48.844;10.098;2023-04-30T04:49:04;96983.63;;;10.72;68.95
48216;BME280;34005;48.844;10.098;2023-04-30T04:51:33;96984.63;;;10.71;68.98
48216;BME280;34005;48.844;10.098;2023-04-30T04:54:01;96980.38;;;10.70;69.10
48216;BME280;34005;48.844;10.098;2023-04-30T04:56:31;96979.41;;;10.71;69.06
48216;BME280;34005;48.844;10.098;2023-04-30T04:59:00;96984.00;;;10.69;69.10
48216;BME280;34005;48.844;10.098;2023-04-30T05:04:03;96990.81;;;10.70;69.10
48216;BME280;34005;48.844;10.098;2023-04-30T05:06:32;96999.47;;;10.71;69.07
48216;BME280;34005;48.844;10.098;2023-04-30T05:09:00;96989.84;;;10.71;69.19
48216;BME280;34005;48.844;10.098;2023-04-30T05:11:30;96990.50;;;10.74;69.19
48216;BME280;34005;48.844;10.098;2023-04-30T05:13:58;96992.28;;;10.73;69.14
48216;BME280;34005;48.844;10.098;2023-04-30T05:16:27;96994.56;;;10.76;69.02
48216;BME280;34005;48.844;10.098;2023-04-30T05:18:55;96997.59;;;10.80;68.99
48216;BME280;34005;48.844;10.098;2023-04-30T05:21:23;96989.78;;;10.80;68.80
48216;BME280;34005;48.844;10.098;2023-04-30T05:29:37;96988.28;;;10.85;68.34
48216;BME280;34005;48.844;10.098;2023-04-30T05:32:05;96999.38;;;10.87;68.39
48216;BME280;34005;48.844;10.098;2023-04-30T05:34:34;96988.75;;;10.89;68.44
48216;BME280;34005;48.844;10.098;2023-04-30T05:37:03;96989.22;;;10.92;68.58
48216;BME280;34005;48.844;10.098;2023-04-30T05:39:31;96989.84;;;10.95;68.40
48216;BME280;34005;48.844;10.098;2023-04-30T05:41:59;96983.47;;;10.97;68.35
48216;BME280;34005;48.844;10.098;2023-04-30T05:44:29;96981.69;;;10.98;68.18
48216;BME280;34005;48.844;10.098;2023-04-30T05:46:58;96988.69;;;10.97;68.19
48216;BME280;34005;48.844;10.098;2023-04-30T05:49:28;96989.31;;;10.99;68.11
48216;BME280;34005;48.844;10.098;2023-04-30T05:51:58;96996.19;;;11.00;67.90
48216;BME280;34005;48.844;10.098;2023-04-30T05:54:27;96996.63;;;11.04;67.94
48216;BME280;34005;48.844;10.098;2023-04-30T05:56:56;96993.84;;;11.05;67.56
48216;BME280;34005;48.844;10.098;2023-04-30T05:59:24;96998.72;;;11.08;67.54
48216;BME280;34005;48.844;10.098;2023-04-30T06:01:52;96989.53;;;11.12;67.49
48216;BME280;34005;48.844;10.098;2023-04-30T06:04:24;96996.03;;;11.17;67.32
48216;BME280;34005;48.844;10.098;2023-04-30T06:06:53;96992.47;;;11.18;67.24
48216;BME280;34005;48.844;10.098;2023-04-30T06:09:21;96999.94;;;11.21;67.32
48216;BME280;34005;48.844;10.098;2023-04-30T06:11:50;97006.44;;;11.25;67.18
48216;BME280;34005;48.844;10.098;2023-04-30T06:14:18;97007.88;;;11.27;67.37
48216;BME280;34005;48.844;10.098;2023-04-30T06:16:48;97006.72;;;11.30;66.84
48216;BME280;34005;48.844;10.098;2023-04-30T06:19:17;97007.97;;;11.34;66.87
48216;BME280;34005;48.844;10.098;2023-04-30T06:21:50;97017.09;;;11.38;66.89
48216;BME280;34005;48.844;10.098;2023-04-30T06:24:19;97008.88;;;11.41;66.72
48216;BME280;34005;48.844;10.098;2023-04-30T06:26:47;97004.94;;;11.45;66.50
48216;BME280;34005;48.844;10.098;2023-04-30T06:29:15;97009.03;;;11.48;66.13
48216;BME280;34005;48.844;10.098;2023-04-30T06:31:44;97011.09;;;11.52;66.24
48216;BME280;34005;48.844;10.098;2023-04-30T06:34:12;97007.59;;;11.60;66.23
48216;BME280;34005;48.844;10.098;2023-04-30T06:36:42;97010.13;;;11.68;65.77
48216;BME280;34005;48.844;10.098;2023-04-30T06:39:14;97005.00;;;11.75;65.57
48216;BME280;34005;48.844;10.098;2023-04-30T06:44:24;97013.69;;;11.90;65.24
48216;BME280;34005;48.844;10.098;2023-04-30T06:46:53;97009.34;;;11.98;65.18
48216;BME280;34005;48.844;10.098;2023-04-30T06:49:22;97006.66;;;12.06;65.30
48216;BME280;34005;48.844;10.098;2023-04-30T06:51:52;97011.81;;;12.14;64.86
48216;BME280;34005;48.844;10.098;2023-04-30T06:54:23;97014.50;;;12.21;64.34
48216;BME280;34005;48.844;10.098;2023-04-30T06:59:33;97011.50;;;12.39;63.40
48216;BME280;34005;48.844;10.098;2023-04-30T07:02:02;97015.63;;;12.48;63.13
48216;BME280;34005;48.844;10.098;2023-04-30T07:17:55;97016.56;;;12.98;61.25
48216;BME280;34005;48.844;10.098;2023-04-30T07:20:24;97017.44;;;13.05;60.84
48216;BME280;34005;48.844;10.098;2023-04-30T07:25:20;97014.00;;;13.26;62.36
48216;BME280;34005;48.844;10.098;2023-04-30T07:27:50;97014.97;;;13.40;59.97
48216;BME280;34005;48.844;10.098;2023-04-30T07:30:20;97011.22;;;13.49;59.92
48216;BME280;34005;48.844;10.098;2023-04-30T07:32:51;97015.31;;;13.58;59.42
48216;BME280;34005;48.844;10.098;2023-04-30T07:35:21;97016.16;;;13.66;58.63
48216;BME280;34005;48.844;10.098;2023-04-30T07:37:50;97008.97;;;13.74;58.70
48216;BME280;34005;48.844;10.098;2023-04-30T07:40:18;97005.19;;;13.84;58.88
48216;BME280;34005;48.844;10.098;2023-04-30T07:43:01;97014.97;;;13.96;58.47
48216;BME280;34005;48.844;10.098;2023-04-30T07:45:31;97015.63;;;14.05;57.34
48216;BME280;34005;48.844;10.098;2023-04-30T07:50:46;97000.53;;;14.14;55.89
48216;BME280;34005;48.844;10.098;2023-04-30T07:53:19;97011.50;;;14.24;55.80
48216;BME280;34005;48.844;10.098;2023-04-30T07:55:49;97002.03;;;14.36;55.08
48216;BME280;34005;48.844;10.098;2023-04-30T07:58:20;97007.13;;;14.45;54.30
48216;BME280;34005;48.844;10.098;2023-04-30T08:03:20;97011.75;;;14.42;53.39
48216;BME280;34005;48.844;10.098;2023-04-30T08:05:49;97016.34;;;14.34;53.42
48216;BME280;34005;48.844;10.098;2023-04-30T08:08:16;97015.34;;;14.28;53.82
48216;BME280;34005;48.844;10.098;2023-04-30T08:10:44;97009.47;;;14.26;54.00
48216;BME280;34005;48.844;10.098;2023-04-30T08:13:11;97011.69;;;14.29;53.91
48216;BME280;34005;48.844;10.098;2023-04-30T08:15:39;97008.28;;;14.29;54.42
48216;BME280;34005;48.844;10.098;2023-04-30T08:18:06;97008.09;;;14.30;54.42
48216;BME280;34005;48.844;10.098;2023-04-30T08:20:34;97004.63;;;14.30;54.12
48216;BME280;34005;48.844;10.098;2023-04-30T08:23:05;97005.47;;;14.30;54.30
48216;BME280;34005;48.844;10.098;2023-04-30T08:25:32;96997.38;;;14.32;54.13
48216;BME280;34005;48.844;10.098;2023-04-30T08:28:00;96997.41;;;14.38;53.84
48216;BME280;34005;48.844;10.098;2023-04-30T08:30:28;97003.91;;;14.49;53.64
48216;BME280;34005;48.844;10.098;2023-04-30T08:32:55;97001.94;;;14.58;52.02
48216;BME280;34005;48.844;10.098;2023-04-30T08:35:23;96996.13;;;14.69;51.45
48216;BME280;34005;48.844;10.098;2023-04-30T08:37:51;96993.13;;;14.79;51.69
48216;BME280;34005;48.844;10.098;2023-04-30T08:40:20;97003.66;;;14.92;50.55
48216;BME280;34005;48.844;10.098;2023-04-30T08:43:08;97003.47;;;14.94;49.83
48216;BME280;34005;48.844;10.098;2023-04-30T08:45:36;96994.38;;;14.90;48.93
48216;BME280;34005;48.844;10.098;2023-04-30T08:48:08;97009.31;;;14.82;47.80
48216;BME280;34005;48.844;10.098;2023-04-30T08:50:37;96997.34;;;14.73;48.26
48216;BME280;34005;48.844;10.098;2023-04-30T08:53:06;97006.41;;;14.64;48.54
48216;BME280;34005;48.844;10.098;2023-04-30T08:55:38;97002.56;;;14.60;48.52
48216;BME280;34005;48.844;10.098;2023-04-30T08:58:07;97005.41;;;14.58;49.14
48216;BME280;34005;48.844;10.098;2023-04-30T09:00:37;97006.81;;;14.61;49.12
48216;BME280;34005;48.844;10.098;2023-04-30T09:03:05;97006.00;;;14.60;48.18
48216;BME280;34005;48.844;10.098;2023-04-30T09:05:35;97007.63;;;14.61;47.39
48216;BME280;34005;48.844;10.098;2023-04-30T09:08:03;96992.88;;;14.60;46.16
48216;BME280;34005;48.844;10.098;2023-04-30T09:10:31;97006.59;;;14.62;47.78
48216;BME280;34005;48.844;10.098;2023-04-30T09:13:01;97002.19;;;14.63;46.76
48216;BME280;34005;48.844;10.098;2023-04-30T09:15:30;97008.44;;;14.62;46.92
48216;BME280;34005;48.844;10.098;2023-04-30T09:18:09;97004.59;;;14.65;46.86
48216;BME280;34005;48.844;10.098;2023-04-30T09:20:53;97008.25;;;14.70;47.27
48216;BME280;34005;48.844;10.098;2023-04-30T09:23:21;96994.72;;;14.73;47.50
48216;BME280;34005;48.844;10.098;2023-04-30T09:25:49;97010.09;;;14.76;47.78
48216;BME280;34005;48.844;10.098;2023-04-30T09:28:19;96998.78;;;14.76;46.22
48216;BME280;34005;48.844;10.098;2023-04-30T09:30:50;96999.38;;;14.78;46.57
48216;BME280;34005;48.844;10.098;2023-04-30T09:33:18;97005.25;;;14.80;46.14
48216;BME280;34005;48.844;10.098;2023-04-30T09:35:46;96998.81;;;14.82;45.58
48216;BME280;34005;48.844;10.098;2023-04-30T09:38:27;96997.19;;;14.95;45.33
48216;BME280;34005;48.844;10.098;2023-04-30T09:40:57;97000.44;;;15.03;45.62
48216;BME280;34005;48.844;10.098;2023-04-30T09:43:26;96999.84;;;15.08;45.35
48216;BME280;34005;48.844;10.098;2023-04-30T09:45:56;96996.84;;;15.11;45.71
48216;BME280;34005;48.844;10.098;2023-04-30T09:48:25;97002.69;;;15.13;45.59
48216;BME280;34005;48.844;10.098;2023-04-30T09:50:53;96991.97;;;15.15;45.92
48216;BME280;34005;48.844;10.098;2023-04-30T09:53:21;96999.47;;;15.24;46.55
48216;BME280;34005;48.844;10.098;2023-04-30T09:55:50;96991.16;;;15.41;46.75
48216;BME280;34005;48.844;10.098;2023-04-30T09:58:18;96993.59;;;15.62;46.44
48216;BME280;34005;48.844;10.098;2023-04-30T10:00:49;96995.63;;;15.74;45.96
48216;BME280;34005;48.844;10.098;2023-04-30T10:03:20;96998.66;;;15.84;46.28
48216;BME280;34005;48.844;10.098;2023-04-30T10:05:50;96998.81;;;15.96;45.98
48216;BME280;34005;48.844;10.098;2023-04-30T10:08:25;96995.81;;;15.99;45.60
48216;BME280;34005;48.844;10.098;2023-04-30T10:10:57;96994.78;;;15.93;46.21
48216;BME280;34005;48.844;10.098;2023-04-30T10:13:26;97005.31;;;15.86;46.71
48216;BME280;34005;48.844;10.098;2023-04-30T10:16:00;97002.72;;;15.73;46.87
48216;BME280;34005;48.844;10.098;2023-04-30T10:18:33;97004.09;;;15.62;47.17
48216;BME280;34005;48.844;10.098;2023-04-30T10:21:02;97001.91;;;15.59;47.07
48216;BME280;34005;48.844;10.098;2023-04-30T10:23:35;97004.53;;;15.59;47.31
48216;BME280;34005;48.844;10.098;2023-04-30T10:26:03;96995.22;;;15.63;47.45
48216;BME280;34005;48.844;10.098;2023-04-30T10:28:31;96995.84;;;15.65;48.04
48216;BME280;34005;48.844;10.098;2023-04-30T10:31:00;96989.97;;;15.63;47.65
48216;BME280;34005;48.844;10.098;2023-04-30T10:33:33;96992.00;;;15.61;46.91
48216;BME280;34005;48.844;10.098;2023-04-30T10:36:05;96985.50;;;15.57;47.65
48216;BME280;34005;48.844;10.098;2023-04-30T10:38:35;96983.69;;;15.58;47.50
48216;BME280;34005;48.844;10.098;2023-04-30T10:41:06;96969.31;;;15.60;47.24
48216;BME280;34005;48.844;10.098;2023-04-30T10:43:35;96963.66;;;15.63;47.07
48216;BME280;34005;48.844;10.098;2023-04-30T10:46:04;96969.94;;;15.62;46.92
48216;BME280;34005;48.844;10.098;2023-04-30T10:48:33;96972.75;;;15.68;46.65
48216;BME280;34005;48.844;10.098;2023-04-30T10:51:01;96968.50;;;15.66;46.69
48216;BME280;34005;48.844;10.098;2023-04-30T10:53:30;96973.78;;;15.60;46.17
48216;BME280;34005;48.844;10.098;2023-04-30T10:56:00;96970.13;;;15.54;46.13
48216;BME280;34005;48.844;10.098;2023-04-30T10:58:33;96965.28;;;15.51;46.38
48216;BME280;34005;48.844;10.098;2023-04-30T11:01:05;96973.38;;;15.50;46.45
48216;BME280;34005;48.844;10.098;2023-04-30T11:03:34;96964.50;;;15.51;46.38
48216;BME280;34005;48.844;10.098;2023-04-30T11:06:10;96968.53;;;15.53;46.20
48216;BME280;34005;48.844;10.098;2023-04-30T11:08:42;96966.91;;;15.52;46.53
48216;BME280;34005;48.844;10.098;2023-04-30T11:11:11;96973.38;;;15.50;46.60
48216;BME280;34005;48.844;10.098;2023-04-30T11:13:44;96969.75;;;15.51;46.00
48216;BME280;34005;48.844;10.098;2023-04-30T11:16:15;96963.69;;;15.57;45.95
48216;BME280;34005;48.844;10.098;2023-04-30T11:18:46;96963.25;;;15.66;46.14
48216;BME280;34005;48.844;10.098;2023-04-30T11:21:13;96960.22;;;15.76;45.39
48216;BME280;34005;48.844;10.098;2023-04-30T11:23:41;96972.34;;;15.84;44.82
48216;BME280;34005;48.844;10.098;2023-04-30T11:26:09;96959.59;;;15.94;45.00
48216;BME280;34005;48.844;10.098;2023-04-30T11:28:37;96957.50;;;16.10;45.09
48216;BME280;34005;48.844;10.098;2023-04-30T11:31:05;96960.69;;;16.25;44.35
48216;BME280;34005;48.844;10.098;2023-04-30T11:33:33;96954.16;;;16.34;44.06
48216;BME280;34005;48.844;10.098;2023-04-30T11:36:01;96951.31;;;16.42;43.69
48216;BME280;34005;48.844;10.098;2023-04-30T11:38:32;96951.03;;;16.51;44.11
48216;BME280;34005;48.844;10.098;2023-04-30T11:41:00;96947.97;;;16.60;43.48
48216;BME280;34005;48.844;10.098;2023-04-30T11:43:29;96956.81;;;16.66;43.31
48216;BME280;34005;48.844;10.098;2023-04-30T11:46:06;96955.22;;;16.65;42.83
48216;BME280;34005;48.844;10.098;2023-04-30T11:48:36;96960.09;;;16.61;43.05
48216;BME280;34005;48.844;10.098;2023-04-30T11:51:12;96949.19;;;16.58;43.01
48216;BME280;34005;48.844;10.098;2023-04-30T11:53:40;96951.19;;;16.62;43.25
48216;BME280;34005;48.844;10.098;2023-04-30T11:56:08;96959.47;;;16.66;43.18
48216;BME280;34005;48.844;10.098;2023-04-30T11:58:36;96951.59;;;16.59;41.99
48216;BME280;34005;48.844;10.098;2023-04-30T12:01:06;96943.97;;;16.51;41.97
48216;BME280;34005;48.844;10.098;2023-04-30T12:03:41;96938.53;;;16.39;41.21
48216;BME280;34005;48.844;10.098;2023-04-30T12:06:10;96937.94;;;16.37;42.17
48216;BME280;34005;48.844;10.098;2023-04-30T12:08:40;96933.88;;;16.41;41.03
48216;BME280;34005;48.844;10.098;2023-04-30T12:11:19;96939.75;;;16.43;41.78
48216;BME280;34005;48.844;10.098;2023-04-30T12:13:54;96942.00;;;16.40;42.40
48216;BME280;34005;48.844;10.098;2023-04-30T12:16:23;96939.97;;;16.35;43.30
48216;BME280;34005;48.844;10.098;2023-04-30T12:18:52;96936.19;;;16.31;42.84
48216;BME280;34005;48.844;10.098;2023-04-30T12:21:21;96937.22;;;16.23;42.97
48216;BME280;34005;48.844;10.098;2023-04-30T12:23:49;96939.88;;;16.17;43.42
48216;BME280;34005;48.844;10.098;2023-04-30T12:26:16;96937.66;;;16.14;43.48
48216;BME280;34005;48.844;10.098;2023-04-30T12:28:46;96937.44;;;16.15;43.65
48216;BME280;34005;48.844;10.098;2023-04-30T12:31:16;96936.81;;;16.20;43.52
48216;BME280;34005;48.844;10.098;2023-04-30T12:33:53;96934.97;;;16.27;44.06
48216;BME280;34005;48.844;10.098;2023-04-30T12:36:21;96931.06;;;16.36;42.91
48216;BME280;34005;48.844;10.098;2023-04-30T12:39:00;96924.16;;;16.42;42.99
48216;BME280;34005;48.844;10.098;2023-04-30T12:41:28;96924.09;;;16.48;42.74
48216;BME280;34005;48.844;10.098;2023-04-30T12:44:18;96932.00;;;16.48;41.64
48216;BME280;34005;48.844;10.098;2023-04-30T12:46:46;96924.97;;;16.42;42.45
48216;BME280;34005;48.844;10.098;2023-04-30T12:49:23;96928.63;;;16.41;42.47
48216;BME280;34005;48.844;10.098;2023-04-30T12:51:51;96915.03;;;16.44;43.33
48216;BME280;34005;48.844;10.098;2023-04-30T12:54:26;96923.09;;;16.50;42.66
48216;BME280;34005;48.844;10.098;2023-04-30T12:56:58;96915.38;;;16.55;42.74
48216;BME280;34005;48.844;10.098;2023-04-30T12:59:26;96920.81;;;16.60;42.51
48216;BME280;34005;48.844;10.098;2023-04-30T13:01:54;96915.31;;;16.61;42.49
48216;BME280;34005;48.844;10.098;2023-04-30T13:04:23;96911.09;;;16.60;42.02
48216;BME280;34005;48.844;10.098;2023-04-30T13:06:51;96913.94;;;16.59;42.45
48216;BME280;34005;48.844;10.098;2023-04-30T13:09:18;96900.56;;;16.60;42.38
48216;BME280;34005;48.844;10.098;2023-04-30T13:11:47;96909.41;;;16.66;42.16
48216;BME280;34005;48.844;10.098;2023-04-30T13:14:16;96897.69;;;16.68;42.25
48216;BME280;34005;48.844;10.098;2023-04-30T13:16:43;96897.25;;;16.72;41.88
48216;BME280;34005;48.844;10.098;2023-04-30T13:19:11;96900.25;;;16.75;41.75
48216;BME280;34005;48.844;10.098;2023-04-30T13:21:40;96893.56;;;16.79;42.14
48216;BME280;34005;48.844;10.098;2023-04-30T13:24:07;96886.63;;;16.85;41.79
48216;BME280;34005;48.844;10.098;2023-04-30T13:26:35;96878.88;;;16.90;41.55
48216;BME280;34005;48.844;10.098;2023-04-30T13:29:02;96881.31;;;16.92;41.54
48216;BME280;34005;48.844;10.098;2023-04-30T13:31:30;96867.53;;;16.89;41.32
48216;BME280;34005;48.844;10.098;2023-04-30T13:33:58;96878.88;;;16.90;42.46
48216;BME280;34005;48.844;10.098;2023-04-30T13:36:26;96876.63;;;16.94;42.46
48216;BME280;34005;48.844;10.098;2023-04-30T13:38:55;96880.50;;;16.91;42.50
48216;BME280;34005;48.844;10.098;2023-04-30T13:41:23;96872.66;;;16.84;42.52
48216;BME280;34005;48.844;10.098;2023-04-30T13:43:52;96870.84;;;16.78;42.64
48216;BME280;34005;48.844;10.098;2023-04-30T13:46:19;96871.06;;;16.77;43.09
48216;BME280;34005;48.844;10.098;2023-04-30T13:48:47;96872.88;;;16.76;43.14
48216;BME280;34005;48.844;10.098;2023-04-30T13:51:17;96862.34;;;16.76;43.93
48216;BME280;34005;48.844;10.098;2023-04-30T13:53:44;96863.97;;;16.77;43.36
48216;BME280;34005;48.844;10.098;2023-04-30T13:56:13;96860.75;;;16.75;42.56
48216;BME280;34005;48.844;10.098;2023-04-30T13:58:41;96859.56;;;16.71;42.67
48216;BME280;34005;48.844;10.098;2023-04-30T14:01:09;96856.94;;;16.71;43.83
48216;BME280;34005;48.844;10.098;2023-04-30T14:03:37;96856.34;;;16.69;42.43
48216;BME280;34005;48.844;10.098;2023-04-30T14:06:05;96854.09;;;16.66;41.90
48216;BME280;34005;48.844;10.098;2023-04-30T14:08:32;96850.91;;;16.64;41.75
48216;BME280;34005;48.844;10.098;2023-04-30T14:11:00;96852.31;;;16.66;41.51
48216;BME280;34005;48.844;10.098;2023-04-30T14:13:29;96862.84;;;16.66;42.03
48216;BME280;34005;48.844;10.098;2023-04-30T14:15:56;96852.94;;;16.62;41.62
48216;BME280;34005;48.844;10.098;2023-04-30T14:18:24;96860.66;;;16.57;41.96
48216;BME280;34005;48.844;10.098;2023-04-30T14:20:52;96858.03;;;16.57;41.99
48216;BME280;34005;48.844;10.098;2023-04-30T14:23:19;96857.44;;;16.55;41.92
48216;BME280;34005;48.844;10.098;2023-04-30T14:25:47;96853.59;;;16.51;42.54
48216;BME280;34005;48.844;10.098;2023-04-30T14:28:14;96849.56;;;16.48;42.10
48216;BME280;34005;48.844;10.098;2023-04-30T14:30:43;96847.59;;;16.43;42.25
48216;BME280;34005;48.844;10.098;2023-04-30T14:33:11;96846.41;;;16.39;42.43
48216;BME280;34005;48.844;10.098;2023-04-30T14:35:39;96840.34;;;16.39;42.04
48216;BME280;34005;48.844;10.098;2023-04-30T14:38:07;96833.47;;;16.38;42.18
48216;BME280;34005;48.844;10.098;2023-04-30T14:40:34;96832.63;;;16.37;41.80
48216;BME280;34005;48.844;10.098;2023-04-30T14:43:02;96823.72;;;16.38;42.13
48216;BME280;34005;48.844;10.098;2023-04-30T14:45:31;96822.28;;;16.42;41.77
48216;BME280;34005;48.844;10.098;2023-04-30T14:48:00;96828.31;;;16.50;41.65
48216;BME280;34005;48.844;10.098;2023-04-30T14:50:31;96830.09;;;16.56;41.35
48216;BME280;34005;48.844;10.098;2023-04-30T14:52:58;96819.56;;;16.56;41.36
48216;BME280;34005;48.844;10.098;2023-04-30T14:55:26;96830.91;;;16.56;41.59
48216;BME280;34005;48.844;10.098;2023-04-30T14:57:54;96824.22;;;16.54;41.30
48216;BME280;34005;48.844;10.098;2023-04-30T15:00:21;96825.25;;;16.53;42.17
48216;BME280;34005;48.844;10.098;2023-04-30T15:02:49;96818.78;;;16.48;41.12
48216;BME280;34005;48.844;10.098;2023-04-30T15:05:18;96807.88;;;16.45;41.66
48216;BME280;34005;48.844;10.098;2023-04-30T15:07:46;96822.25;;;16.49;41.93
48216;BME280;34005;48.844;10.098;2023-04-30T15:10:13;96821.00;;;16.52;41.61